createdAt,value
2018-08-30T00:00:20.796Z,17.89
2018-08-30T00:01:24.967Z,17.88
2018-08-30T00:02:29.141Z,17.87
2018-08-30T00:03:33.307Z,17.86
2018-08-30T00:04:37.523Z,17.85
2018-08-30T00:05:42.239Z,17.83
2018-08-30T00:06:46.431Z,17.82
2018-08-30T00:07:50.648Z,17.79
2018-08-30T00:08:54.789Z,17.77
2018-08-30T00:09:58.939Z,17.75
2018-08-30T00:11:03.098Z,17.72
2018-08-30T00:12:07.536Z,17.67
2018-08-30T00:13:11.719Z,17.65
2018-08-30T00:14:15.966Z,17.63
2018-08-30T00:15:20.115Z,17.61
2018-08-30T00:16:24.377Z,17.61
2018-08-30T00:17:28.497Z,17.59
2018-08-30T00:18:32.696Z,17.60
2018-08-30T00:19:36.898Z,17.61
2018-08-30T00:20:41.323Z,17.61
2018-08-30T00:21:45.497Z,17.64
2018-08-30T00:22:49.727Z,17.66
2018-08-30T00:23:53.893Z,17.69
2018-08-30T00:24:58.256Z,17.71
2018-08-30T00:26:02.620Z,17.71
2018-08-30T00:27:07.066Z,17.71
2018-08-30T00:28:11.270Z,17.71
2018-08-30T00:29:15.443Z,17.71
2018-08-30T00:30:19.677Z,17.71
2018-08-30T00:31:23.834Z,17.71
2018-08-30T00:32:28.115Z,17.73
2018-08-30T00:33:32.285Z,17.76
2018-08-30T00:34:36.471Z,17.78
2018-08-30T00:35:41.648Z,17.78
2018-08-30T00:36:45.816Z,17.80
2018-08-30T00:37:50.132Z,17.81
2018-08-30T00:38:54.305Z,17.83
2018-08-30T00:39:58.507Z,17.83
2018-08-30T00:41:02.659Z,17.84
2018-08-30T00:42:06.859Z,17.87
2018-08-30T00:43:11.085Z,17.88
2018-08-30T00:44:15.231Z,17.89
2018-08-30T00:45:19.691Z,17.90
2018-08-30T00:46:23.846Z,17.90
2018-08-30T00:47:28.059Z,17.93
2018-08-30T00:48:32.318Z,17.94
2018-08-30T00:49:36.628Z,17.96
2018-08-30T00:50:41.019Z,17.97
2018-08-30T00:51:45.209Z,17.98
2018-08-30T00:52:49.399Z,17.99
2018-08-30T00:53:53.620Z,18.00
2018-08-30T00:54:58.007Z,18.02
2018-08-30T00:56:02.183Z,18.03
2018-08-30T00:57:06.439Z,18.03
2018-08-30T00:58:10.613Z,18.04
2018-08-30T00:59:14.750Z,18.02
2018-08-30T01:00:18.984Z,18.02
2018-08-30T01:01:23.226Z,18.01
2018-08-30T01:02:27.422Z,18.00
2018-08-30T01:03:31.591Z,18.02
2018-08-30T01:04:35.762Z,18.03
2018-08-30T01:05:39.918Z,18.03
2018-08-30T01:06:44.144Z,18.04
2018-08-30T01:07:51.312Z,18.05
2018-08-30T01:08:55.555Z,18.06
2018-08-30T01:09:59.714Z,18.05
2018-08-30T01:11:03.997Z,18.07
2018-08-30T01:12:08.166Z,18.07
2018-08-30T01:13:12.589Z,18.05
2018-08-30T01:14:16.749Z,18.05
2018-08-30T01:15:21.571Z,18.06
2018-08-30T01:16:25.736Z,18.08
2018-08-30T01:17:30.031Z,18.09
2018-08-30T01:18:34.208Z,18.09
2018-08-30T01:19:38.432Z,18.10
2018-08-30T01:20:42.600Z,18.11
2018-08-30T01:21:46.783Z,18.10
2018-08-30T01:22:51.049Z,18.12
2018-08-30T01:23:55.215Z,18.13
2018-08-30T01:24:59.403Z,18.13
2018-08-30T01:26:03.582Z,18.15
2018-08-30T01:27:14.395Z,18.17
2018-08-30T01:28:18.573Z,18.18
2018-08-30T01:29:22.743Z,18.19
2018-08-30T01:30:26.923Z,18.20
2018-08-30T01:31:31.142Z,18.22
2018-08-30T01:32:35.613Z,18.22
2018-08-30T01:33:39.876Z,18.21
2018-08-30T01:34:44.049Z,18.19
2018-08-30T01:35:48.270Z,18.19
2018-08-30T01:36:52.419Z,18.19
2018-08-30T01:37:56.584Z,18.19
2018-08-30T01:39:00.771Z,18.19
2018-08-30T01:40:05.192Z,18.20
2018-08-30T01:41:09.334Z,18.20
2018-08-30T01:42:13.672Z,18.19
2018-08-30T01:43:17.845Z,18.20
2018-08-30T01:44:22.032Z,18.21
2018-08-30T01:45:26.187Z,18.21
2018-08-30T01:46:30.628Z,18.22
2018-08-30T01:47:34.794Z,18.22
2018-08-30T01:48:38.945Z,18.22
2018-08-30T01:49:43.346Z,18.21
2018-08-30T01:50:47.502Z,18.20
2018-08-30T01:51:51.735Z,18.19
2018-08-30T01:52:55.910Z,18.19
2018-08-30T01:54:00.112Z,18.19
2018-08-30T01:55:04.534Z,18.18
2018-08-30T01:56:08.707Z,18.20
2018-08-30T01:57:13.141Z,18.20
2018-08-30T01:58:17.312Z,18.19
2018-08-30T01:59:21.488Z,18.20
2018-08-30T02:00:25.704Z,18.21
2018-08-30T02:01:29.837Z,18.19
2018-08-30T02:02:34.005Z,18.19
2018-08-30T02:03:38.172Z,18.19
2018-08-30T02:04:42.482Z,18.18
2018-08-30T02:05:46.687Z,18.18
2018-08-30T02:06:50.867Z,18.17
2018-08-30T02:07:55.168Z,18.18
2018-08-30T02:08:59.564Z,18.15
2018-08-30T02:10:03.786Z,18.14
2018-08-30T02:11:07.977Z,18.13
2018-08-30T02:12:12.333Z,18.12
2018-08-30T02:13:16.506Z,18.12
2018-08-30T02:14:20.799Z,18.13
2018-08-30T02:15:25.109Z,18.14
2018-08-30T02:16:29.498Z,18.14
2018-08-30T02:17:33.707Z,18.17
2018-08-30T02:18:37.870Z,18.16
2018-08-30T02:19:42.018Z,18.17
2018-08-30T02:20:46.183Z,18.17
2018-08-30T02:21:50.375Z,18.18
2018-08-30T02:22:54.506Z,18.20
2018-08-30T02:23:58.655Z,18.22
2018-08-30T02:25:02.839Z,18.24
2018-08-30T02:26:07.185Z,18.25
2018-08-30T02:27:11.381Z,18.28
2018-08-30T02:28:15.518Z,18.27
2018-08-30T02:29:19.976Z,18.28
2018-08-30T02:30:24.145Z,18.29
2018-08-30T02:31:28.347Z,18.29
2018-08-30T02:32:32.523Z,18.28
2018-08-30T02:33:36.749Z,18.28
2018-08-30T02:34:40.920Z,18.27
2018-08-30T02:35:45.096Z,18.28
2018-08-30T02:36:49.294Z,18.28
2018-08-30T02:37:53.499Z,18.28
2018-08-30T02:38:57.894Z,18.26
2018-08-30T02:40:02.091Z,18.26
2018-08-30T02:41:06.379Z,18.28
2018-08-30T02:42:10.561Z,18.28
2018-08-30T02:43:14.730Z,18.28
2018-08-30T02:44:19.142Z,18.29
2018-08-30T02:45:23.499Z,18.29
2018-08-30T02:46:27.655Z,18.28
2018-08-30T02:47:31.980Z,18.28
2018-08-30T02:48:36.171Z,18.26
2018-08-30T02:49:40.371Z,18.23
2018-08-30T02:50:44.694Z,18.22
2018-08-30T02:51:48.894Z,18.21
2018-08-30T02:52:53.423Z,18.20
2018-08-30T02:53:57.644Z,18.20
2018-08-30T02:55:01.888Z,18.19
2018-08-30T02:56:06.359Z,18.20
2018-08-30T02:57:10.541Z,18.20
2018-08-30T02:58:14.718Z,18.19
2018-08-30T02:59:18.879Z,18.19
2018-08-30T03:00:23.824Z,18.20
2018-08-30T03:01:28.122Z,18.19
2018-08-30T03:02:34.027Z,18.18
2018-08-30T03:03:38.235Z,18.18
2018-08-30T03:04:42.443Z,18.16
2018-08-30T03:05:46.771Z,18.17
2018-08-30T03:06:50.927Z,18.14
2018-08-30T03:07:55.072Z,18.14
2018-08-30T03:08:59.260Z,18.11
2018-08-30T03:10:03.471Z,18.11
2018-08-30T03:11:07.916Z,18.11
2018-08-30T03:12:12.074Z,18.08
2018-08-30T03:13:16.283Z,18.06
2018-08-30T03:14:20.444Z,18.06
2018-08-30T03:15:24.670Z,18.06
2018-08-30T03:16:28.835Z,18.06
2018-08-30T03:17:33.080Z,18.05
2018-08-30T03:18:37.287Z,18.06
2018-08-30T03:19:41.522Z,18.06
2018-08-30T03:20:45.729Z,18.05
2018-08-30T03:21:49.893Z,18.05
2018-08-30T03:22:54.124Z,18.03
2018-08-30T03:23:58.287Z,18.03
2018-08-30T03:25:02.679Z,18.03
2018-08-30T03:26:07.429Z,18.01
2018-08-30T03:27:11.570Z,18.00
2018-08-30T03:28:15.780Z,18.01
2018-08-30T03:29:20.053Z,18.02
2018-08-30T03:30:24.330Z,18.03
2018-08-30T03:31:28.413Z,18.02
2018-08-30T03:32:32.579Z,18.03
2018-08-30T03:33:36.714Z,18.03
2018-08-30T03:34:40.977Z,18.03
2018-08-30T03:35:45.356Z,18.03
2018-08-30T03:36:49.735Z,18.03
2018-08-30T03:37:53.888Z,18.03
2018-08-30T03:38:58.104Z,18.03
2018-08-30T03:40:02.285Z,18.03
2018-08-30T03:41:06.747Z,18.04
2018-08-30T03:42:11.130Z,18.04
2018-08-30T03:43:15.263Z,18.05
2018-08-30T03:44:19.443Z,18.04
2018-08-30T03:45:23.678Z,18.04
2018-08-30T03:46:27.996Z,18.06
2018-08-30T03:47:32.797Z,18.07
2018-08-30T03:48:36.962Z,18.07
2018-08-30T03:49:41.555Z,18.07
2018-08-30T03:50:45.844Z,18.08
2018-08-30T03:51:50.004Z,18.08
2018-08-30T03:52:54.295Z,18.08
2018-08-30T03:53:58.511Z,18.08
2018-08-30T03:55:02.955Z,18.08
2018-08-30T03:56:07.331Z,18.06
2018-08-30T03:57:11.491Z,18.05
2018-08-30T03:58:15.720Z,18.05
2018-08-30T03:59:19.891Z,18.05
2018-08-30T04:00:24.134Z,18.05
2018-08-30T04:01:28.327Z,18.04
2018-08-30T04:02:32.531Z,18.04
2018-08-30T04:03:36.731Z,18.04
2018-08-30T04:04:40.974Z,18.03
2018-08-30T04:05:45.130Z,18.02
2018-08-30T04:06:49.330Z,18.01
2018-08-30T04:07:53.588Z,18.01
2018-08-30T04:08:57.800Z,18.00
2018-08-30T04:10:02.103Z,18.01
2018-08-30T04:11:06.477Z,18.00
2018-08-30T04:12:10.661Z,18.02
2018-08-30T04:13:14.925Z,18.03
2018-08-30T04:14:19.216Z,18.03
2018-08-30T04:15:23.408Z,18.03
2018-08-30T04:16:27.583Z,18.03
2018-08-30T04:17:31.746Z,18.02
2018-08-30T04:18:35.945Z,18.02
2018-08-30T04:19:40.166Z,18.03
2018-08-30T04:20:44.357Z,18.02
2018-08-30T04:21:48.510Z,18.03
2018-08-30T04:22:52.699Z,18.04
2018-08-30T04:23:56.907Z,18.05
2018-08-30T04:25:01.107Z,18.04
2018-08-30T04:26:05.748Z,18.02
2018-08-30T04:27:09.945Z,18.00
2018-08-30T04:28:14.112Z,18.01
2018-08-30T04:29:18.284Z,18.00
2018-08-30T04:30:22.511Z,18.01
2018-08-30T04:31:27.125Z,18.00
2018-08-30T04:32:31.270Z,18.00
2018-08-30T04:33:35.655Z,18.00
2018-08-30T04:34:39.967Z,18.00
2018-08-30T04:35:44.390Z,18.01
2018-08-30T04:36:48.569Z,18.01
2018-08-30T04:37:52.770Z,18.02
2018-08-30T04:38:57.864Z,18.06
2018-08-30T04:40:02.088Z,18.07
2018-08-30T04:41:06.536Z,18.10
2018-08-30T04:42:10.986Z,18.12
2018-08-30T04:43:15.260Z,18.15
2018-08-30T04:44:19.448Z,18.16
2018-08-30T04:45:23.687Z,18.19
2018-08-30T04:46:27.903Z,18.19
2018-08-30T04:47:32.124Z,18.22
2018-08-30T04:48:36.845Z,18.23
2018-08-30T04:49:41.140Z,18.21
2018-08-30T04:50:45.320Z,18.20
2018-08-30T04:51:49.510Z,18.20
2018-08-30T04:52:53.702Z,18.20
2018-08-30T04:53:58.022Z,18.21
2018-08-30T04:55:02.448Z,18.21
2018-08-30T04:56:06.893Z,18.21
2018-08-30T04:57:11.105Z,18.20
2018-08-30T04:58:15.295Z,18.18
2018-08-30T04:59:19.477Z,18.16
2018-08-30T05:00:23.681Z,18.15
2018-08-30T05:01:27.839Z,18.13
2018-08-30T05:02:32.049Z,18.14
2018-08-30T05:03:36.231Z,18.14
2018-08-30T05:04:40.448Z,18.15
2018-08-30T05:05:44.658Z,18.14
2018-08-30T05:06:48.838Z,18.14
2018-08-30T05:07:53.067Z,18.14
2018-08-30T05:08:57.216Z,18.14
2018-08-30T05:10:01.563Z,18.14
2018-08-30T05:11:05.719Z,18.15
2018-08-30T05:12:09.888Z,18.16
2018-08-30T05:13:14.197Z,18.14
2018-08-30T05:14:18.357Z,18.13
2018-08-30T05:15:22.587Z,18.12
2018-08-30T05:16:26.800Z,18.12
2018-08-30T05:17:30.930Z,18.12
2018-08-30T05:18:35.146Z,18.12
2018-08-30T05:19:39.427Z,18.14
2018-08-30T05:20:43.570Z,18.15
2018-08-30T05:21:47.725Z,18.16
2018-08-30T05:22:51.982Z,18.16
2018-08-30T05:23:56.350Z,18.19
2018-08-30T05:25:00.726Z,18.19
2018-08-30T05:26:04.965Z,18.21
2018-08-30T05:27:09.118Z,18.20
2018-08-30T05:28:13.297Z,18.21
2018-08-30T05:29:19.302Z,18.21
2018-08-30T05:30:23.547Z,18.18
2018-08-30T05:31:27.723Z,18.17
2018-08-30T05:32:32.141Z,18.17
2018-08-30T05:33:36.299Z,18.16
2018-08-30T05:34:40.529Z,18.16
2018-08-30T05:35:44.766Z,18.16
2018-08-30T05:36:48.930Z,18.16
2018-08-30T05:37:53.121Z,18.15
2018-08-30T05:39:04.367Z,18.16
2018-08-30T05:40:08.579Z,18.15
2018-08-30T05:41:12.783Z,18.16
2018-08-30T05:42:16.963Z,18.16
2018-08-30T05:43:21.361Z,18.17
2018-08-30T05:44:25.872Z,18.18
2018-08-30T05:45:30.067Z,18.18
2018-08-30T05:46:34.283Z,18.19
2018-08-30T05:47:38.467Z,18.21
2018-08-30T05:48:42.628Z,18.21
2018-08-30T05:49:46.798Z,18.25
2018-08-30T05:50:51.188Z,18.24
2018-08-30T05:51:55.396Z,18.26
2018-08-30T05:52:59.562Z,18.26
2018-08-30T05:54:03.743Z,18.28
2018-08-30T05:55:07.939Z,18.30
2018-08-30T05:56:12.324Z,18.31
2018-08-30T05:57:16.541Z,18.32
2018-08-30T05:58:20.751Z,18.33
2018-08-30T05:59:25.362Z,18.32
2018-08-30T06:00:29.564Z,18.29
2018-08-30T06:01:33.832Z,18.29
2018-08-30T06:02:37.999Z,18.28
2018-08-30T06:03:42.180Z,18.28
2018-08-30T06:04:46.344Z,18.28
2018-08-30T06:05:50.639Z,18.31
2018-08-30T06:06:54.837Z,18.32
2018-08-30T06:07:59.021Z,18.34
2018-08-30T06:09:03.275Z,18.35
2018-08-30T06:10:07.497Z,18.39
2018-08-30T06:11:11.679Z,18.41
2018-08-30T06:12:15.867Z,18.43
2018-08-30T06:13:20.048Z,18.44
2018-08-30T06:14:24.299Z,18.43
2018-08-30T06:15:28.610Z,18.45
2018-08-30T06:16:34.142Z,18.45
2018-08-30T06:17:39.254Z,18.45
2018-08-30T06:18:43.972Z,18.44
2018-08-30T06:19:48.431Z,18.45
2018-08-30T06:20:52.806Z,18.47
2018-08-30T06:21:58.091Z,18.48
2018-08-30T06:23:02.696Z,18.47
2018-08-30T06:24:07.781Z,18.47
2018-08-30T06:25:12.003Z,18.48
2018-08-30T06:26:16.918Z,18.49
2018-08-30T06:27:22.224Z,18.48
2018-08-30T06:28:27.599Z,18.47
2018-08-30T06:29:33.548Z,18.47
2018-08-30T06:30:38.761Z,18.47
2018-08-30T06:31:43.038Z,18.47
2018-08-30T06:32:47.306Z,18.47
2018-08-30T06:33:51.652Z,18.48
2018-08-30T06:34:56.012Z,18.47
2018-08-30T06:36:01.867Z,18.49
2018-08-30T06:37:08.592Z,18.50
2018-08-30T06:38:12.931Z,18.54
2018-08-30T06:39:17.595Z,18.54
2018-08-30T06:40:22.130Z,18.56
2018-08-30T06:41:26.870Z,18.59
2018-08-30T06:42:32.180Z,18.61
2018-08-30T06:43:37.331Z,18.63
2018-08-30T06:44:41.841Z,18.64
2018-08-30T06:45:48.984Z,18.65
2018-08-30T06:46:54.262Z,18.68
2018-08-30T06:47:58.495Z,18.69
2018-08-30T06:49:02.810Z,18.71
2018-08-30T06:50:07.933Z,18.72
2018-08-30T06:51:13.960Z,18.71
2018-08-30T06:52:18.262Z,18.72
2018-08-30T06:53:22.496Z,18.72
2018-08-30T06:54:26.803Z,18.72
2018-08-30T06:55:31.415Z,18.71
2018-08-30T06:56:35.827Z,18.74
2018-08-30T06:57:41.144Z,18.74
2018-08-30T06:58:45.652Z,18.76
2018-08-30T06:59:50.134Z,18.77
2018-08-30T07:00:54.736Z,18.80
2018-08-30T07:02:00.181Z,18.82
2018-08-30T07:03:05.474Z,18.83
2018-08-30T07:04:11.488Z,18.83
2018-08-30T07:05:16.157Z,18.83
2018-08-30T07:06:20.727Z,18.81
2018-08-30T07:07:25.281Z,18.79
2018-08-30T07:08:29.931Z,18.78
2018-08-30T07:09:34.562Z,18.80
2018-08-30T07:10:39.757Z,18.81
2018-08-30T07:11:44.708Z,18.82
2018-08-30T07:12:49.134Z,18.83
2018-08-30T07:13:53.884Z,18.86
2018-08-30T07:14:58.592Z,18.88
2018-08-30T07:16:03.554Z,18.89
2018-08-30T07:17:08.498Z,18.90
2018-08-30T07:18:13.760Z,18.92
2018-08-30T07:19:19.012Z,18.95
2018-08-30T07:20:23.940Z,18.99
2018-08-30T07:21:28.129Z,19.02
2018-08-30T07:22:32.327Z,19.05
2018-08-30T07:23:37.808Z,19.08
2018-08-30T07:24:42.597Z,19.12
2018-08-30T07:25:46.889Z,19.13
2018-08-30T07:26:52.368Z,19.15
2018-08-30T07:27:58.064Z,19.18
2018-08-30T07:29:03.458Z,19.19
2018-08-30T07:30:11.885Z,19.19
2018-08-30T07:31:17.355Z,19.19
2018-08-30T07:32:23.886Z,19.18
2018-08-30T07:33:30.241Z,19.15
2018-08-30T07:34:34.479Z,19.14
2018-08-30T07:35:38.721Z,19.14
2018-08-30T07:36:42.908Z,19.15
2018-08-30T07:37:47.112Z,19.16
2018-08-30T07:38:51.273Z,19.18
2018-08-30T07:39:55.452Z,19.21
2018-08-30T07:40:59.632Z,19.22
2018-08-30T07:42:03.829Z,19.22
2018-08-30T07:43:07.995Z,19.21
2018-08-30T07:44:12.777Z,19.23
2018-08-30T07:45:17.163Z,19.22
2018-08-30T07:46:21.303Z,19.23
2018-08-30T07:47:25.492Z,19.25
2018-08-30T07:48:29.653Z,19.28
2018-08-30T07:49:33.828Z,19.32
2018-08-30T07:50:38.025Z,19.36
2018-08-30T07:51:42.211Z,19.39
2018-08-30T07:52:46.379Z,19.41
2018-08-30T07:53:50.720Z,19.42
2018-08-30T07:54:55.215Z,19.42
2018-08-30T07:55:59.347Z,19.42
2018-08-30T07:57:03.802Z,19.41
2018-08-30T07:58:08.036Z,19.37
2018-08-30T07:59:12.241Z,19.35
2018-08-30T08:00:17.560Z,19.32
2018-08-30T08:01:21.743Z,19.29
2018-08-30T08:02:25.920Z,19.25
2018-08-30T08:03:30.115Z,19.22
2018-08-30T08:04:34.311Z,19.20
2018-08-30T08:05:38.551Z,19.17
2018-08-30T08:06:42.800Z,19.15
2018-08-30T08:07:47.113Z,19.12
2018-08-30T08:08:51.327Z,19.10
2018-08-30T08:09:55.524Z,19.10
2018-08-30T08:10:59.736Z,19.10
2018-08-30T08:12:04.141Z,19.12
2018-08-30T08:13:08.340Z,19.13
2018-08-30T08:14:12.544Z,19.16
2018-08-30T08:15:16.783Z,19.20
2018-08-30T08:16:21.212Z,19.27
2018-08-30T08:17:25.466Z,19.35
2018-08-30T08:18:29.802Z,19.44
2018-08-30T08:19:34.247Z,19.50
2018-08-30T08:20:38.800Z,19.55
2018-08-30T08:21:43.003Z,19.61
2018-08-30T08:22:47.309Z,19.65
2018-08-30T08:23:51.448Z,19.71
2018-08-30T08:24:55.626Z,19.73
2018-08-30T08:25:59.830Z,19.77
2018-08-30T08:27:04.136Z,19.79
2018-08-30T08:28:09.024Z,19.77
2018-08-30T08:29:13.211Z,19.75
2018-08-30T08:30:17.414Z,19.72
2018-08-30T08:31:21.615Z,19.69
2018-08-30T08:32:25.830Z,19.66
2018-08-30T08:33:30.107Z,19.62
2018-08-30T08:34:34.396Z,19.61
2018-08-30T08:35:38.693Z,19.59
2018-08-30T08:36:42.897Z,19.56
2018-08-30T08:37:47.115Z,19.52
2018-08-30T08:38:51.294Z,19.49
2018-08-30T08:39:55.515Z,19.48
2018-08-30T08:41:00.074Z,19.46
2018-08-30T08:42:04.300Z,19.49
2018-08-30T08:43:08.630Z,19.49
2018-08-30T08:44:12.802Z,19.52
2018-08-30T08:45:17.059Z,19.56
2018-08-30T08:46:21.259Z,19.61
2018-08-30T08:47:25.420Z,19.65
2018-08-30T08:48:29.663Z,19.68
2018-08-30T08:49:33.903Z,19.71
2018-08-30T08:50:38.090Z,19.75
2018-08-30T08:51:42.299Z,19.77
2018-08-30T08:52:46.523Z,19.81
2018-08-30T08:53:50.868Z,19.85
2018-08-30T08:54:57.050Z,19.90
2018-08-30T08:56:01.291Z,19.93
2018-08-30T08:57:05.801Z,19.97
2018-08-30T08:58:10.107Z,20.01
2018-08-30T08:59:14.441Z,20.05
2018-08-30T09:00:18.586Z,20.09
2018-08-30T09:01:22.755Z,20.11
2018-08-30T09:02:26.905Z,20.12
2018-08-30T09:03:31.120Z,20.13
2018-08-30T09:04:35.408Z,20.12
2018-08-30T09:05:40.328Z,20.12
2018-08-30T09:06:44.535Z,20.12
2018-08-30T09:07:49.083Z,20.12
2018-08-30T09:08:53.250Z,20.13
2018-08-30T09:09:58.260Z,20.16
2018-08-30T09:11:02.575Z,20.18
2018-08-30T09:12:06.767Z,20.22
2018-08-30T09:13:10.982Z,20.29
2018-08-30T09:14:15.271Z,20.34
2018-08-30T09:15:19.462Z,20.37
2018-08-30T09:16:23.655Z,20.41
2018-08-30T09:17:27.795Z,20.44
2018-08-30T09:18:32.128Z,20.44
2018-08-30T09:19:36.259Z,20.45
2018-08-30T09:20:40.490Z,20.43
2018-08-30T09:21:44.642Z,20.41
2018-08-30T09:22:48.790Z,20.40
2018-08-30T09:23:53.002Z,20.39
2018-08-30T09:24:57.138Z,20.38
2018-08-30T09:26:01.315Z,20.37
2018-08-30T09:27:05.532Z,20.35
2018-08-30T09:28:09.799Z,20.34
2018-08-30T09:29:13.966Z,20.34
2018-08-30T09:30:18.100Z,20.35
2018-08-30T09:31:22.552Z,20.34
2018-08-30T09:32:26.902Z,20.33
2018-08-30T09:33:31.073Z,20.32
2018-08-30T09:34:35.378Z,20.30
2018-08-30T09:35:39.628Z,20.29
2018-08-30T09:36:43.813Z,20.30
2018-08-30T09:37:47.951Z,20.31
2018-08-30T09:38:52.167Z,20.34
2018-08-30T09:39:56.307Z,20.32
2018-08-30T09:41:00.633Z,20.31
2018-08-30T09:42:04.941Z,20.32
2018-08-30T09:43:09.311Z,20.32
2018-08-30T09:44:13.515Z,20.30
2018-08-30T09:45:17.684Z,20.27
2018-08-30T09:46:21.861Z,20.25
2018-08-30T09:47:26.051Z,20.24
2018-08-30T09:48:30.396Z,20.25
2018-08-30T09:49:34.575Z,20.23
2018-08-30T09:50:38.715Z,20.25
2018-08-30T09:51:42.904Z,20.26
2018-08-30T09:52:47.128Z,20.28
2018-08-30T09:53:51.484Z,20.33
2018-08-30T09:54:55.614Z,20.39
2018-08-30T09:55:59.785Z,20.46
2018-08-30T09:57:04.122Z,20.56
2018-08-30T09:58:08.583Z,20.61
2018-08-30T09:59:13.226Z,20.66
2018-08-30T10:00:22.880Z,20.71
2018-08-30T10:01:32.351Z,20.81
2018-08-30T10:02:56.043Z,20.87
2018-08-30T10:04:00.319Z,20.94
2018-08-30T10:05:04.494Z,20.98
2018-08-30T10:06:08.686Z,21.01
2018-08-30T10:07:13.506Z,21.02
2018-08-30T10:08:17.666Z,21.03
2018-08-30T10:09:21.906Z,21.03
2018-08-30T10:10:26.466Z,21.06
2018-08-30T10:11:30.620Z,21.10
2018-08-30T10:12:34.940Z,21.13
2018-08-30T10:13:39.113Z,21.12
2018-08-30T10:14:43.659Z,21.08
2018-08-30T10:15:47.867Z,21.03
2018-08-30T10:16:52.068Z,20.97
2018-08-30T10:17:56.214Z,20.94
2018-08-30T10:19:00.379Z,20.92
2018-08-30T10:20:04.684Z,20.90
2018-08-30T10:21:08.826Z,20.87
2018-08-30T10:22:13.062Z,20.84
2018-08-30T10:23:17.300Z,20.84
2018-08-30T10:24:21.496Z,20.81
2018-08-30T10:25:25.743Z,20.82
2018-08-30T10:26:29.868Z,20.81
2018-08-30T10:27:34.018Z,20.82
2018-08-30T10:28:38.164Z,20.85
2018-08-30T10:29:42.323Z,20.87
2018-08-30T10:30:46.519Z,20.91
2018-08-30T10:31:50.723Z,20.93
2018-08-30T10:32:54.922Z,20.92
2018-08-30T10:33:59.085Z,20.92
2018-08-30T10:35:04.539Z,20.89
2018-08-30T10:36:08.763Z,20.85
2018-08-30T10:37:12.907Z,20.81
2018-08-30T10:38:17.071Z,20.78
2018-08-30T10:39:21.395Z,20.76
2018-08-30T10:40:25.595Z,20.76
2018-08-30T10:41:29.810Z,20.76
2018-08-30T10:42:34.007Z,20.78
2018-08-30T10:43:38.236Z,20.83
2018-08-30T10:44:43.671Z,20.88
2018-08-30T10:45:47.839Z,20.95
2018-08-30T10:46:52.140Z,21.00
2018-08-30T10:47:56.274Z,21.06
2018-08-30T10:49:00.464Z,21.12
2018-08-30T10:50:04.680Z,21.16
2018-08-30T10:51:08.848Z,21.20
2018-08-30T10:52:13.283Z,21.23
2018-08-30T10:53:17.502Z,21.22
2018-08-30T10:54:21.702Z,21.20
2018-08-30T10:55:25.860Z,21.20
2018-08-30T10:56:30.206Z,21.20
2018-08-30T10:57:34.496Z,21.21
2018-08-30T10:58:38.915Z,21.22
2018-08-30T10:59:43.349Z,21.20
2018-08-30T11:00:48.468Z,21.18
2018-08-30T11:01:54.169Z,21.16
2018-08-30T11:02:59.393Z,21.12
2018-08-30T11:04:04.531Z,21.09
2018-08-30T11:05:09.371Z,21.07
2018-08-30T11:06:13.634Z,21.03
2018-08-30T11:07:18.119Z,21.01
2018-08-30T11:08:22.367Z,21.00
2018-08-30T11:09:26.687Z,21.00
2018-08-30T11:10:31.133Z,21.02
2018-08-30T11:11:35.372Z,21.05
2018-08-30T11:12:39.652Z,21.09
2018-08-30T11:13:45.215Z,21.14
2018-08-30T11:14:50.873Z,21.18
2018-08-30T11:15:55.537Z,21.22
2018-08-30T11:16:59.790Z,21.27
2018-08-30T11:18:04.362Z,21.32
2018-08-30T11:19:08.683Z,21.35
2018-08-30T11:20:12.847Z,21.37
2018-08-30T11:21:17.075Z,21.38
2018-08-30T11:22:21.244Z,21.40
2018-08-30T11:23:25.488Z,21.40
2018-08-30T11:24:29.934Z,21.40
2018-08-30T11:25:34.362Z,21.42
2018-08-30T11:26:38.619Z,21.42
2018-08-30T11:27:42.740Z,21.39
2018-08-30T11:28:48.444Z,21.38
2018-08-30T11:29:55.246Z,21.36
2018-08-30T11:31:00.373Z,21.34
2018-08-30T11:32:04.648Z,21.33
2018-08-30T11:33:09.979Z,21.31
2018-08-30T11:34:14.157Z,21.32
2018-08-30T11:35:20.050Z,21.34
2018-08-30T11:36:24.997Z,21.37
2018-08-30T11:37:30.366Z,21.40
2018-08-30T11:38:34.935Z,21.44
2018-08-30T11:39:39.134Z,21.48
2018-08-30T11:40:43.376Z,21.52
2018-08-30T11:41:47.836Z,21.54
2018-08-30T11:42:51.883Z,21.53
2018-08-30T11:43:56.054Z,21.52
2018-08-30T11:45:00.240Z,21.50
2018-08-30T11:46:04.444Z,21.47
2018-08-30T11:47:08.580Z,21.46
2018-08-30T11:48:12.717Z,21.46
2018-08-30T11:49:16.874Z,21.45
2018-08-30T11:50:21.060Z,21.45
2018-08-30T11:51:26.197Z,21.46
2018-08-30T11:52:30.396Z,21.46
2018-08-30T11:53:34.558Z,21.42
2018-08-30T11:54:38.751Z,21.38
2018-08-30T11:55:42.892Z,21.33
2018-08-30T11:56:53.612Z,21.31
2018-08-30T11:57:57.821Z,21.31
2018-08-30T11:59:04.297Z,21.31
2018-08-30T12:00:10.460Z,21.29
2018-08-30T12:01:15.372Z,21.29
2018-08-30T12:02:19.608Z,21.28
2018-08-30T12:03:24.220Z,21.30
2018-08-30T12:04:28.771Z,21.30
2018-08-30T12:05:33.441Z,21.32
2018-08-30T12:06:37.799Z,21.33
2018-08-30T12:07:42.663Z,21.31
2018-08-30T12:08:46.876Z,21.32
2018-08-30T12:09:51.066Z,21.29
2018-08-30T12:10:55.446Z,21.27
2018-08-30T12:12:01.001Z,21.22
2018-08-30T12:13:05.424Z,21.14
2018-08-30T12:14:09.578Z,21.08
2018-08-30T12:15:13.784Z,21.01
2018-08-30T12:16:18.133Z,20.95
2018-08-30T12:17:22.408Z,20.92
2018-08-30T12:18:26.622Z,20.90
2018-08-30T12:19:30.785Z,20.90
2018-08-30T12:20:35.046Z,20.92
2018-08-30T12:21:39.170Z,20.92
2018-08-30T12:22:43.341Z,20.94
2018-08-30T12:23:47.598Z,20.95
2018-08-30T12:24:51.751Z,20.96
2018-08-30T12:25:55.930Z,20.97
2018-08-30T12:27:00.132Z,20.99
2018-08-30T12:28:04.306Z,21.01
2018-08-30T12:29:08.664Z,21.03
2018-08-30T12:30:12.881Z,21.04
2018-08-30T12:31:17.115Z,21.07
2018-08-30T12:32:21.610Z,21.08
2018-08-30T12:33:25.806Z,21.09
2018-08-30T12:34:30.174Z,21.09
2018-08-30T12:35:34.419Z,21.10
2018-08-30T12:36:38.556Z,21.11
2018-08-30T12:37:42.673Z,21.14
2018-08-30T12:38:46.939Z,21.17
2018-08-30T12:39:51.157Z,21.20
2018-08-30T12:40:55.334Z,21.24
2018-08-30T12:41:59.464Z,21.30
2018-08-30T12:43:04.003Z,21.37
2018-08-30T12:44:08.349Z,21.44
2018-08-30T12:45:12.518Z,21.46
2018-08-30T12:46:16.773Z,21.46
2018-08-30T12:47:20.904Z,21.41
2018-08-30T12:48:25.129Z,21.37
2018-08-30T12:49:29.320Z,21.30
2018-08-30T12:50:33.584Z,21.25
2018-08-30T12:51:38.008Z,21.21
2018-08-30T12:52:41.999Z,21.15
2018-08-30T12:53:46.296Z,21.12
2018-08-30T12:54:50.441Z,21.09
2018-08-30T12:55:54.829Z,21.08
2018-08-30T12:57:00.023Z,21.10
2018-08-30T12:58:04.570Z,21.13
2018-08-30T12:59:14.606Z,21.15
2018-08-30T13:00:18.765Z,21.20
2018-08-30T13:01:23.071Z,21.22
2018-08-30T13:02:27.304Z,21.23
2018-08-30T13:03:31.377Z,21.26
2018-08-30T13:04:35.704Z,21.27
2018-08-30T13:05:39.997Z,21.28
2018-08-30T13:06:45.685Z,21.28
2018-08-30T13:07:49.918Z,21.29
2018-08-30T13:08:54.129Z,21.28
2018-08-30T13:09:58.343Z,21.30
2018-08-30T13:11:02.738Z,21.32
2018-08-30T13:12:07.037Z,21.35
2018-08-30T13:13:11.119Z,21.37
2018-08-30T13:14:15.640Z,21.41
2018-08-30T13:15:21.379Z,21.46
2018-08-30T13:16:25.541Z,21.50
2018-08-30T13:17:29.812Z,21.52
2018-08-30T13:18:34.165Z,21.53
2018-08-30T13:19:38.768Z,21.55
2018-08-30T13:20:42.942Z,21.54
2018-08-30T13:21:47.697Z,21.50
2018-08-30T13:22:51.964Z,21.47
2018-08-30T13:23:56.173Z,21.42
2018-08-30T13:25:00.722Z,21.39
2018-08-30T13:26:05.334Z,21.38
2018-08-30T13:27:09.750Z,21.38
2018-08-30T13:28:14.410Z,21.39
2018-08-30T13:29:18.830Z,21.42
2018-08-30T13:30:22.973Z,21.45
2018-08-30T13:31:27.673Z,21.50
2018-08-30T13:32:32.418Z,21.55
2018-08-30T13:33:36.567Z,21.61
2018-08-30T13:34:40.902Z,21.68
2018-08-30T13:35:44.884Z,21.75
2018-08-30T13:36:49.345Z,21.85
2018-08-30T13:37:53.502Z,21.95
2018-08-30T13:38:58.066Z,22.03
2018-08-30T13:40:03.697Z,22.10
2018-08-30T13:41:08.307Z,22.13
2018-08-30T13:42:13.183Z,22.17
2018-08-30T13:43:17.594Z,22.18
2018-08-30T13:44:24.171Z,22.14
2018-08-30T13:45:28.475Z,22.09
2018-08-30T13:46:34.968Z,22.05
2018-08-30T13:47:39.345Z,22.02
2018-08-30T13:48:44.593Z,22.00
2018-08-30T13:49:48.865Z,21.98